sensor_id;sensor_type;location;lat;lon;timestamp;pressure;altitude;pressure_sealevel;temperature;humidity
21779;BME280;11050;52.222;20.916;2024-02-26T00:01:42;99297.56;;;7.46;100.00
21779;BME280;11050;52.222;20.916;2024-02-26T00:04:12;99298.88;;;7.44;100.00
21779;BME280;11050;52.222;20.916;2024-02-26T00:06:39;99291.22;;;7.41;100.00
21779;BME280;11050;52.222;20.916;2024-02-26T00:09:10;99286.50;;;7.36;100.00
21779;BME280;11050;52.222;20.916;2024-02-26T00:11:36;99276.59;;;7.30;100.00
21779;BME280;11050;52.222;20.916;2024-02-26T00:14:03;99273.56;;;7.27;100.00
21779;BME280;11050;52.222;20.916;2024-02-26T00:16:29;99285.91;;;7.29;100.00
21779;BME280;11050;52.222;20.916;2024-02-26T00:18:55;99276.56;;;7.25;100.00
21779;BME280;11050;52.222;20.916;2024-02-26T00:21:21;99280.34;;;7.24;100.00
21779;BME280;11050;52.222;20.916;2024-02-26T00:23:47;99278.16;;;7.21;100.00
21779;BME280;11050;52.222;20.916;2024-02-26T00:26:14;99265.03;;;7.18;100.00
21779;BME280;11050;52.222;20.916;2024-02-26T00:28:40;99277.28;;;7.16;100.00
21779;BME280;11050;52.222;20.916;2024-02-26T00:31:06;99278.03;;;7.11;100.00
21779;BME280;11050;52.222;20.916;2024-02-26T00:33:32;99280.47;;;7.08;100.00
21779;BME280;11050;52.222;20.916;2024-02-26T00:35:57;99276.84;;;7.02;100.00
21779;BME280;11050;52.222;20.916;2024-02-26T00:38:23;99277.88;;;6.96;100.00
21779;BME280;11050;52.222;20.916;2024-02-26T00:40:49;99278.38;;;6.93;100.00
21779;BME280;11050;52.222;20.916;2024-02-26T00:43:14;99271.25;;;6.92;100.00
21779;BME280;11050;52.222;20.916;2024-02-26T00:45:40;99276.16;;;6.90;100.00
21779;BME280;11050;52.222;20.916;2024-02-26T00:48:06;99281.06;;;6.88;100.00
21779;BME280;11050;52.222;20.916;2024-02-26T00:50:33;99274.94;;;6.81;100.00
21779;BME280;11050;52.222;20.916;2024-02-26T00:53:00;99271.66;;;6.79;100.00
21779;BME280;11050;52.222;20.916;2024-02-26T00:55:26;99271.59;;;6.74;100.00
21779;BME280;11050;52.222;20.916;2024-02-26T00:57:51;99271.34;;;6.76;100.00
21779;BME280;11050;52.222;20.916;2024-02-26T01:00:18;99269.97;;;6.73;100.00
21779;BME280;11050;52.222;20.916;2024-02-26T01:02:43;99269.63;;;6.69;100.00
21779;BME280;11050;52.222;20.916;2024-02-26T01:05:13;99262.78;;;6.67;100.00
21779;BME280;11050;52.222;20.916;2024-02-26T01:07:39;99277.50;;;6.66;100.00
21779;BME280;11050;52.222;20.916;2024-02-26T01:10:06;99278.59;;;6.65;100.00
21779;BME280;11050;52.222;20.916;2024-02-26T01:12:33;99288.41;;;6.66;100.00
21779;BME280;11050;52.222;20.916;2024-02-26T01:15:00;99284.63;;;6.67;100.00
21779;BME280;11050;52.222;20.916;2024-02-26T01:17:26;99282.19;;;6.70;100.00
21779;BME280;11050;52.222;20.916;2024-02-26T01:19:52;99283.03;;;6.71;100.00
21779;BME280;11050;52.222;20.916;2024-02-26T01:22:19;99275.34;;;6.68;100.00
21779;BME280;11050;52.222;20.916;2024-02-26T01:24:45;99278.31;;;6.66;100.00
21779;BME280;11050;52.222;20.916;2024-02-26T01:27:10;99267.94;;;6.63;100.00
21779;BME280;11050;52.222;20.916;2024-02-26T01:29:36;99272.56;;;6.63;100.00
21779;BME280;11050;52.222;20.916;2024-02-26T01:32:02;99265.44;;;6.62;100.00
21779;BME280;11050;52.222;20.916;2024-02-26T01:34:30;99268.72;;;6.64;100.00
21779;BME280;11050;52.222;20.916;2024-02-26T01:36:56;99271.47;;;6.64;100.00
21779;BME280;11050;52.222;20.916;2024-02-26T01:39:21;99275.28;;;6.63;100.00
21779;BME280;11050;52.222;20.916;2024-02-26T01:41:48;99279.66;;;6.64;100.00
21779;BME280;11050;52.222;20.916;2024-02-26T01:44:13;99269.00;;;6.62;100.00
21779;BME280;11050;52.222;20.916;2024-02-26T01:46:40;99284.63;;;6.67;100.00
21779;BME280;11050;52.222;20.916;2024-02-26T01:49:08;99283.78;;;6.66;100.00
21779;BME280;11050;52.222;20.916;2024-02-26T01:51:38;99276.91;;;6.64;100.00
21779;BME280;11050;52.222;20.916;2024-02-26T01:54:04;99278.28;;;6.61;100.00
21779;BME280;11050;52.222;20.916;2024-02-26T01:56:31;99273.88;;;6.60;100.00
21779;BME280;11050;52.222;20.916;2024-02-26T01:59:01;99284.47;;;6.57;100.00
21779;BME280;11050;52.222;20.916;2024-02-26T02:01:30;99279.03;;;6.57;100.00
21779;BME280;11050;52.222;20.916;2024-02-26T02:03:58;99279.28;;;6.55;100.00
21779;BME280;11050;52.222;20.916;2024-02-26T02:06:26;99269.41;;;6.54;100.00
21779;BME280;11050;52.222;20.916;2024-02-26T02:08:54;99267.47;;;6.50;100.00
21779;BME280;11050;52.222;20.916;2024-02-26T02:11:20;99275.91;;;6.48;100.00
21779;BME280;11050;52.222;20.916;2024-02-26T02:13:46;99269.31;;;6.44;100.00
21779;BME280;11050;52.222;20.916;2024-02-26T02:16:13;99267.31;;;6.40;100.00
21779;BME280;11050;52.222;20.916;2024-02-26T02:18:39;99274.19;;;6.42;100.00
21779;BME280;11050;52.222;20.916;2024-02-26T02:21:05;99274.66;;;6.39;100.00
21779;BME280;11050;52.222;20.916;2024-02-26T02:23:30;99275.44;;;6.35;100.00
21779;BME280;11050;52.222;20.916;2024-02-26T02:25:58;99270.25;;;6.33;100.00
21779;BME280;11050;52.222;20.916;2024-02-26T02:28:27;99274.28;;;6.31;100.00
21779;BME280;11050;52.222;20.916;2024-02-26T02:30:54;99272.88;;;6.28;100.00
21779;BME280;11050;52.222;20.916;2024-02-26T02:33:21;99274.47;;;6.24;100.00
21779;BME280;11050;52.222;20.916;2024-02-26T02:35:48;99278.03;;;6.25;100.00
21779;BME280;11050;52.222;20.916;2024-02-26T02:38:14;99272.00;;;6.23;100.00
21779;BME280;11050;52.222;20.916;2024-02-26T02:40:39;99270.59;;;6.20;100.00
21779;BME280;11050;52.222;20.916;2024-02-26T02:43:05;99274.66;;;6.18;100.00
21779;BME280;11050;52.222;20.916;2024-02-26T02:45:31;99279.53;;;6.16;100.00
21779;BME280;11050;52.222;20.916;2024-02-26T02:47:57;99278.94;;;6.14;100.00
21779;BME280;11050;52.222;20.916;2024-02-26T02:50:23;99274.81;;;6.11;100.00
21779;BME280;11050;52.222;20.916;2024-02-26T02:52:48;99288.97;;;6.08;100.00
21779;BME280;11050;52.222;20.916;2024-02-26T02:55:16;99288.63;;;6.05;100.00
21779;BME280;11050;52.222;20.916;2024-02-26T02:57:42;99290.78;;;6.03;100.00
21779;BME280;11050;52.222;20.916;2024-02-26T03:00:11;99291.53;;;5.98;100.00
21779;BME280;11050;52.222;20.916;2024-02-26T03:02:37;99295.09;;;5.99;100.00
21779;BME280;11050;52.222;20.916;2024-02-26T03:05:04;99300.53;;;5.99;100.00
21779;BME280;11050;52.222;20.916;2024-02-26T03:07:30;99302.19;;;6.00;100.00
21779;BME280;11050;52.222;20.916;2024-02-26T03:09:56;99307.56;;;5.95;100.00
21779;BME280;11050;52.222;20.916;2024-02-26T03:12:21;99306.50;;;5.96;100.00
21779;BME280;11050;52.222;20.916;2024-02-26T03:14:47;99291.72;;;5.92;100.00
21779;BME280;11050;52.222;20.916;2024-02-26T03:17:13;99305.41;;;5.97;100.00
21779;BME280;11050;52.222;20.916;2024-02-26T03:19:39;99308.38;;;5.95;100.00
21779;BME280;11050;52.222;20.916;2024-02-26T03:22:05;99311.38;;;5.94;100.00
21779;BME280;11050;52.222;20.916;2024-02-26T03:24:30;99312.69;;;5.91;100.00
21779;BME280;11050;52.222;20.916;2024-02-26T03:26:56;99309.38;;;5.89;100.00
21779;BME280;11050;52.222;20.916;2024-02-26T03:29:22;99318.88;;;5.87;100.00
21779;BME280;11050;52.222;20.916;2024-02-26T03:31:48;99305.38;;;5.80;100.00
21779;BME280;11050;52.222;20.916;2024-02-26T03:34:14;99311.19;;;5.84;100.00
21779;BME280;11050;52.222;20.916;2024-02-26T03:36:41;99313.31;;;5.82;100.00
21779;BME280;11050;52.222;20.916;2024-02-26T03:39:07;99311.66;;;5.81;100.00
21779;BME280;11050;52.222;20.916;2024-02-26T03:41:34;99308.84;;;5.75;100.00
21779;BME280;11050;52.222;20.916;2024-02-26T03:44:01;99310.50;;;5.76;100.00
21779;BME280;11050;52.222;20.916;2024-02-26T03:46:27;99305.53;;;5.73;100.00
21779;BME280;11050;52.222;20.916;2024-02-26T03:48:53;99306.63;;;5.72;100.00
21779;BME280;11050;52.222;20.916;2024-02-26T03:51:18;99314.78;;;5.72;100.00
21779;BME280;11050;52.222;20.916;2024-02-26T03:53:44;99308.75;;;5.70;100.00
21779;BME280;11050;52.222;20.916;2024-02-26T03:56:12;99309.59;;;5.71;100.00
21779;BME280;11050;52.222;20.916;2024-02-26T03:58:39;99307.69;;;5.71;100.00
21779;BME280;11050;52.222;20.916;2024-02-26T04:01:08;99316.44;;;5.73;100.00
21779;BME280;11050;52.222;20.916;2024-02-26T04:03:33;99313.50;;;5.75;100.00
21779;BME280;11050;52.222;20.916;2024-02-26T04:06:00;99317.03;;;5.75;100.00
21779;BME280;11050;52.222;20.916;2024-02-26T04:08:25;99319.00;;;5.80;100.00
21779;BME280;11050;52.222;20.916;2024-02-26T04:10:51;99318.75;;;5.82;100.00
21779;BME280;11050;52.222;20.916;2024-02-26T04:13:17;99321.28;;;5.83;100.00
21779;BME280;11050;52.222;20.916;2024-02-26T04:15:43;99311.19;;;5.84;100.00
21779;BME280;11050;52.222;20.916;2024-02-26T04:18:09;99312.25;;;5.83;100.00
21779;BME280;11050;52.222;20.916;2024-02-26T04:20:34;99312.03;;;5.84;100.00
21779;BME280;11050;52.222;20.916;2024-02-26T04:23:00;99310.09;;;5.85;100.00
21779;BME280;11050;52.222;20.916;2024-02-26T04:25:26;99306.59;;;5.84;100.00
21779;BME280;11050;52.222;20.916;2024-02-26T04:27:52;99309.88;;;5.86;100.00
21779;BME280;11050;52.222;20.916;2024-02-26T04:30:18;99312.63;;;5.86;100.00
21779;BME280;11050;52.222;20.916;2024-02-26T04:32:43;99311.41;;;5.82;100.00
21779;BME280;11050;52.222;20.916;2024-02-26T04:35:10;99311.66;;;5.81;100.00
21779;BME280;11050;52.222;20.916;2024-02-26T04:37:35;99310.00;;;5.79;100.00
21779;BME280;11050;52.222;20.916;2024-02-26T04:40:01;99301.81;;;5.79;100.00
21779;BME280;11050;52.222;20.916;2024-02-26T04:42:28;99310.00;;;5.79;100.00
21779;BME280;11050;52.222;20.916;2024-02-26T04:44:57;99306.44;;;5.79;100.00
21779;BME280;11050;52.222;20.916;2024-02-26T04:47:22;99308.38;;;5.78;100.00
21779;BME280;11050;52.222;20.916;2024-02-26T04:49:52;99301.16;;;5.72;100.00
21779;BME280;11050;52.222;20.916;2024-02-26T04:52:18;99304.81;;;5.78;100.00
21779;BME280;11050;52.222;20.916;2024-02-26T04:54:44;99308.38;;;5.78;100.00
21779;BME280;11050;52.222;20.916;2024-02-26T04:57:10;99301.25;;;5.77;100.00
21779;BME280;11050;52.222;20.916;2024-02-26T04:59:36;99314.88;;;5.77;100.00
21779;BME280;11050;52.222;20.916;2024-02-26T05:02:01;99305.63;;;5.78;100.00
21779;BME280;11050;52.222;20.916;2024-02-26T05:04:27;99307.53;;;5.78;100.00
21779;BME280;11050;52.222;20.916;2024-02-26T05:06:53;99311.66;;;5.81;100.00
21779;BME280;11050;52.222;20.916;2024-02-26T05:09:19;99307.53;;;5.78;100.00
21779;BME280;11050;52.222;20.916;2024-02-26T05:11:45;99313.66;;;5.85;100.00
21779;BME280;11050;52.222;20.916;2024-02-26T05:14:11;99318.66;;;5.88;100.00
21779;BME280;11050;52.222;20.916;2024-02-26T05:16:37;99324.44;;;5.92;100.00
21779;BME280;11050;52.222;20.916;2024-02-26T05:19:02;99327.81;;;5.99;100.00
21779;BME280;11050;52.222;20.916;2024-02-26T05:21:28;99327.66;;;6.05;100.00
21779;BME280;11050;52.222;20.916;2024-02-26T05:23:54;99325.06;;;6.15;100.00
21779;BME280;11050;52.222;20.916;2024-02-26T05:26:21;99327.38;;;6.23;100.00
21779;BME280;11050;52.222;20.916;2024-02-26T05:28:47;99333.47;;;6.30;100.00
21779;BME280;11050;52.222;20.916;2024-02-26T05:31:14;99320.75;;;6.36;100.00
21779;BME280;11050;52.222;20.916;2024-02-26T05:33:40;99330.97;;;6.45;100.00
21779;BME280;11050;52.222;20.916;2024-02-26T05:36:06;99333.53;;;6.52;100.00
21779;BME280;11050;52.222;20.916;2024-02-26T05:38:32;99337.16;;;6.57;100.00
21779;BME280;11050;52.222;20.916;2024-02-26T05:41:01;99339.22;;;6.67;100.00
21779;BME280;11050;52.222;20.916;2024-02-26T05:43:27;99340.94;;;6.73;100.00
21779;BME280;11050;52.222;20.916;2024-02-26T05:45:53;99341.00;;;6.78;100.00
21779;BME280;11050;52.222;20.916;2024-02-26T05:48:19;99337.84;;;6.86;100.00
21779;BME280;11050;52.222;20.916;2024-02-26T05:50:46;99345.00;;;6.92;100.00
21779;BME280;11050;52.222;20.916;2024-02-26T05:53:12;99343.97;;;6.98;100.00
21779;BME280;11050;52.222;20.916;2024-02-26T05:55:38;99335.03;;;7.03;100.00
21779;BME280;11050;52.222;20.916;2024-02-26T05:58:04;99334.59;;;7.11;100.00
21779;BME280;11050;52.222;20.916;2024-02-26T06:00:30;99337.38;;;7.16;100.00
21779;BME280;11050;52.222;20.916;2024-02-26T06:02:56;99338.00;;;7.23;100.00
21779;BME280;11050;52.222;20.916;2024-02-26T06:05:22;99339.72;;;7.29;100.00
21779;BME280;11050;52.222;20.916;2024-02-26T06:07:48;99346.06;;;7.34;100.00
21779;BME280;11050;52.222;20.916;2024-02-26T06:10:13;99348.34;;;7.42;100.00
21779;BME280;11050;52.222;20.916;2024-02-26T06:12:39;99350.88;;;7.49;100.00
21779;BME280;11050;52.222;20.916;2024-02-26T06:15:06;99349.06;;;7.59;100.00
21779;BME280;11050;52.222;20.916;2024-02-26T06:17:32;99348.03;;;7.65;100.00
21779;BME280;11050;52.222;20.916;2024-02-26T06:19:59;99345.94;;;7.73;100.00
21779;BME280;11050;52.222;20.916;2024-02-26T06:22:26;99347.63;;;7.79;100.00
21779;BME280;11050;52.222;20.916;2024-02-26T06:24:51;99351.47;;;7.83;100.00
21779;BME280;11050;52.222;20.916;2024-02-26T06:27:17;99355.41;;;7.92;100.00
21779;BME280;11050;52.222;20.916;2024-02-26T06:29:43;99362.25;;;7.94;100.00
21779;BME280;11050;52.222;20.916;2024-02-26T06:32:09;99365.06;;;7.99;100.00
21779;BME280;11050;52.222;20.916;2024-02-26T06:34:35;99358.56;;;8.10;100.00
21779;BME280;11050;52.222;20.916;2024-02-26T06:37:01;99370.44;;;8.21;100.00
21779;BME280;11050;52.222;20.916;2024-02-26T06:39:27;99365.06;;;8.31;100.00
21779;BME280;11050;52.222;20.916;2024-02-26T06:41:52;99365.69;;;8.43;100.00
21779;BME280;11050;52.222;20.916;2024-02-26T06:44:26;99361.44;;;8.57;100.00
21779;BME280;11050;52.222;20.916;2024-02-26T06:46:52;99363.69;;;8.65;100.00
21779;BME280;11050;52.222;20.916;2024-02-26T06:49:18;99365.66;;;8.75;100.00
21779;BME280;11050;52.222;20.916;2024-02-26T06:51:43;99365.41;;;8.81;100.00
21779;BME280;11050;52.222;20.916;2024-02-26T06:54:09;99369.56;;;8.89;100.00
21779;BME280;11050;52.222;20.916;2024-02-26T06:56:35;99360.56;;;8.93;100.00
21779;BME280;11050;52.222;20.916;2024-02-26T06:59:01;99365.47;;;8.96;100.00
21779;BME280;11050;52.222;20.916;2024-02-26T07:01:26;99375.66;;;9.01;100.00
21779;BME280;11050;52.222;20.916;2024-02-26T07:03:52;99366.88;;;9.04;100.00
21779;BME280;11050;52.222;20.916;2024-02-26T07:06:18;99385.59;;;9.17;100.00
21779;BME280;11050;52.222;20.916;2024-02-26T07:08:43;99377.44;;;9.32;100.00
21779;BME280;11050;52.222;20.916;2024-02-26T07:11:10;99371.72;;;9.43;100.00
21779;BME280;11050;52.222;20.916;2024-02-26T07:13:36;99376.69;;;9.51;100.00
21779;BME280;11050;52.222;20.916;2024-02-26T07:16:03;99386.03;;;9.61;100.00
21779;BME280;11050;52.222;20.916;2024-02-26T07:18:29;99378.38;;;9.68;100.00
21779;BME280;11050;52.222;20.916;2024-02-26T07:20:54;99383.56;;;9.69;100.00
21779;BME280;11050;52.222;20.916;2024-02-26T07:23:21;99391.84;;;9.79;100.00
21779;BME280;11050;52.222;20.916;2024-02-26T07:25:47;99386.09;;;9.96;100.00
21779;BME280;11050;52.222;20.916;2024-02-26T07:28:14;99391.66;;;10.11;100.00
21779;BME280;11050;52.222;20.916;2024-02-26T07:30:40;99384.53;;;10.25;100.00
21779;BME280;11050;52.222;20.916;2024-02-26T07:33:06;99387.56;;;10.38;100.00
21779;BME280;11050;52.222;20.916;2024-02-26T07:35:33;99396.06;;;10.47;100.00
21779;BME280;11050;52.222;20.916;2024-02-26T07:37:59;99394.16;;;10.58;100.00
21779;BME280;11050;52.222;20.916;2024-02-26T07:40:25;99394.94;;;10.68;100.00
21779;BME280;11050;52.222;20.916;2024-02-26T07:42:51;99388.34;;;10.64;100.00
21779;BME280;11050;52.222;20.916;2024-02-26T07:45:16;99396.88;;;10.78;100.00
21779;BME280;11050;52.222;20.916;2024-02-26T07:47:46;99404.28;;;10.77;100.00
21779;BME280;11050;52.222;20.916;2024-02-26T07:50:12;99407.56;;;10.79;100.00
21779;BME280;11050;52.222;20.916;2024-02-26T07:52:38;99409.22;;;10.95;100.00
21779;BME280;11050;52.222;20.916;2024-02-26T07:55:05;99406.66;;;11.19;100.00
21779;BME280;11050;52.222;20.916;2024-02-26T07:57:33;99409.63;;;11.37;100.00
21779;BME280;11050;52.222;20.916;2024-02-26T08:00:05;99412.00;;;11.59;100.00
21779;BME280;11050;52.222;20.916;2024-02-26T08:02:35;99412.19;;;11.83;100.00
21779;BME280;11050;52.222;20.916;2024-02-26T08:05:00;99415.44;;;11.95;100.00
21779;BME280;11050;52.222;20.916;2024-02-26T08:07:26;99411.16;;;12.12;100.00
21779;BME280;11050;52.222;20.916;2024-02-26T08:09:52;99414.69;;;12.23;100.00
21779;BME280;11050;52.222;20.916;2024-02-26T08:12:18;99416.41;;;12.14;100.00
21779;BME280;11050;52.222;20.916;2024-02-26T08:14:43;99418.66;;;12.07;100.00
21779;BME280;11050;52.222;20.916;2024-02-26T08:17:10;99407.06;;;12.10;100.00
21779;BME280;11050;52.222;20.916;2024-02-26T08:19:35;99416.38;;;12.19;100.00
21779;BME280;11050;52.222;20.916;2024-02-26T08:22:02;99413.81;;;12.27;100.00
21779;BME280;11050;52.222;20.916;2024-02-26T08:24:28;99414.09;;;12.31;100.00
21779;BME280;11050;52.222;20.916;2024-02-26T08:26:54;99409.72;;;12.25;100.00
21779;BME280;11050;52.222;20.916;2024-02-26T08:29:19;99415.25;;;12.25;100.00
21779;BME280;11050;52.222;20.916;2024-02-26T08:31:45;99414.41;;;12.24;100.00
21779;BME280;11050;52.222;20.916;2024-02-26T08:34:11;99428.97;;;12.30;100.00
21779;BME280;11050;52.222;20.916;2024-02-26T08:36:37;99433.94;;;12.28;100.00
21779;BME280;11050;52.222;20.916;2024-02-26T08:39:03;99430.63;;;12.26;100.00
21779;BME280;11050;52.222;20.916;2024-02-26T08:41:29;99431.50;;;12.21;100.00
21779;BME280;11050;52.222;20.916;2024-02-26T08:43:55;99432.91;;;12.19;100.00
21779;BME280;11050;52.222;20.916;2024-02-26T08:46:21;99436.25;;;12.11;100.00
21779;BME280;11050;52.222;20.916;2024-02-26T08:48:46;99436.88;;;12.03;100.00
21779;BME280;11050;52.222;20.916;2024-02-26T08:51:12;99429.59;;;12.17;100.00
21779;BME280;11050;52.222;20.916;2024-02-26T08:53:38;99432.31;;;12.27;100.00
21779;BME280;11050;52.222;20.916;2024-02-26T08:56:05;99421.97;;;12.43;100.00
21779;BME280;11050;52.222;20.916;2024-02-26T08:58:31;99427.66;;;12.56;100.00
21779;BME280;11050;52.222;20.916;2024-02-26T09:00:57;99432.81;;;12.68;100.00
21779;BME280;11050;52.222;20.916;2024-02-26T09:03:23;99429.19;;;12.72;100.00
21779;BME280;11050;52.222;20.916;2024-02-26T09:05:49;99425.78;;;12.80;100.00
21779;BME280;11050;52.222;20.916;2024-02-26T09:08:15;99435.38;;;12.88;100.00
21779;BME280;11050;52.222;20.916;2024-02-26T09:10:42;99442.19;;;12.95;100.00
21779;BME280;11050;52.222;20.916;2024-02-26T09:13:08;99432.75;;;13.01;100.00
21779;BME280;11050;52.222;20.916;2024-02-26T09:15:33;99442.34;;;13.14;100.00
21779;BME280;11050;52.222;20.916;2024-02-26T09:17:59;99434.16;;;13.27;100.00
21779;BME280;11050;52.222;20.916;2024-02-26T09:20:25;99433.63;;;13.25;100.00
21779;BME280;11050;52.222;20.916;2024-02-26T09:22:51;99449.56;;;13.33;100.00
21779;BME280;11050;52.222;20.916;2024-02-26T09:25:17;99446.69;;;13.44;100.00
21779;BME280;11050;52.222;20.916;2024-02-26T09:27:44;99449.47;;;13.44;100.00
21779;BME280;11050;52.222;20.916;2024-02-26T09:30:11;99443.00;;;13.53;100.00
21779;BME280;11050;52.222;20.916;2024-02-26T09:32:38;99442.59;;;13.65;100.00
21779;BME280;11050;52.222;20.916;2024-02-26T09:35:06;99436.38;;;13.73;100.00
21779;BME280;11050;52.222;20.916;2024-02-26T09:37:31;99438.50;;;13.81;100.00
21779;BME280;11050;52.222;20.916;2024-02-26T09:39:59;99442.84;;;13.87;100.00
21779;BME280;11050;52.222;20.916;2024-02-26T09:42:30;99443.38;;;13.89;100.00
21779;BME280;11050;52.222;20.916;2024-02-26T09:45:00;99444.66;;;13.96;100.00
21779;BME280;11050;52.222;20.916;2024-02-26T09:47:31;99442.34;;;14.03;100.00
21779;BME280;11050;52.222;20.916;2024-02-26T09:49:57;99443.91;;;14.09;100.00
21779;BME280;11050;52.222;20.916;2024-02-26T09:52:25;99437.72;;;14.17;100.00
21779;BME280;11050;52.222;20.916;2024-02-26T09:54:51;99451.25;;;14.19;100.00
21779;BME280;11050;52.222;20.916;2024-02-26T09:57:17;99448.06;;;14.31;100.00
21779;BME280;11050;52.222;20.916;2024-02-26T09:59:44;99455.72;;;14.52;100.00
21779;BME280;11050;52.222;20.916;2024-02-26T10:02:13;99462.22;;;14.61;100.00
21779;BME280;11050;52.222;20.916;2024-02-26T10:04:41;99460.34;;;14.75;100.00
21779;BME280;11050;52.222;20.916;2024-02-26T10:07:13;99470.78;;;14.78;98.21
21779;BME280;11050;52.222;20.916;2024-02-26T10:09:39;99460.66;;;14.74;98.17
21779;BME280;11050;52.222;20.916;2024-02-26T10:12:09;99466.41;;;14.77;97.44
21779;BME280;11050;52.222;20.916;2024-02-26T10:14:36;99461.97;;;14.76;97.00
21779;BME280;11050;52.222;20.916;2024-02-26T10:17:02;99464.31;;;14.69;97.07
21779;BME280;11050;52.222;20.916;2024-02-26T10:19:29;99472.56;;;14.74;98.08
21779;BME280;11050;52.222;20.916;2024-02-26T10:22:00;99469.28;;;15.04;96.58
21779;BME280;11050;52.222;20.916;2024-02-26T10:24:28;99468.91;;;15.25;94.04
21779;BME280;11050;52.222;20.916;2024-02-26T10:26:55;99460.25;;;15.12;93.42
21779;BME280;11050;52.222;20.916;2024-02-26T10:29:24;99467.22;;;15.23;93.79
21779;BME280;11050;52.222;20.916;2024-02-26T10:31:51;99475.06;;;15.35;92.18
21779;BME280;11050;52.222;20.916;2024-02-26T10:34:18;99468.16;;;15.51;92.39
21779;BME280;11050;52.222;20.916;2024-02-26T10:36:44;99471.84;;;15.60;91.79
21779;BME280;11050;52.222;20.916;2024-02-26T10:39:12;99468.13;;;15.78;90.98
21779;BME280;11050;52.222;20.916;2024-02-26T10:41:44;99467.22;;;15.96;89.62
21779;BME280;11050;52.222;20.916;2024-02-26T10:44:10;99469.34;;;16.13;87.54
21779;BME280;11050;52.222;20.916;2024-02-26T10:46:42;99479.47;;;16.31;87.27
21779;BME280;11050;52.222;20.916;2024-02-26T10:49:15;99479.75;;;16.57;85.61
21779;BME280;11050;52.222;20.916;2024-02-26T10:51:45;99470.38;;;16.66;84.80
21779;BME280;11050;52.222;20.916;2024-02-26T10:54:16;99464.41;;;16.59;83.34
21779;BME280;11050;52.222;20.916;2024-02-26T10:56:42;99473.19;;;16.53;83.58
21779;BME280;11050;52.222;20.916;2024-02-26T10:59:12;99475.84;;;16.44;83.69
21779;BME280;11050;52.222;20.916;2024-02-26T11:01:39;99477.84;;;16.30;84.25
21779;BME280;11050;52.222;20.916;2024-02-26T11:04:08;99469.03;;;16.14;84.37
21779;BME280;11050;52.222;20.916;2024-02-26T11:06:36;99477.59;;;15.91;85.19
21779;BME280;11050;52.222;20.916;2024-02-26T11:09:02;99467.34;;;15.64;87.31
21779;BME280;11050;52.222;20.916;2024-02-26T11:11:31;99472.69;;;15.74;88.18
21779;BME280;11050;52.222;20.916;2024-02-26T11:14:03;99468.06;;;15.83;87.41
21779;BME280;11050;52.222;20.916;2024-02-26T11:16:29;99468.44;;;15.90;86.66
21779;BME280;11050;52.222;20.916;2024-02-26T11:18:57;99465.69;;;15.90;86.49
21779;BME280;11050;52.222;20.916;2024-02-26T11:21:23;99466.91;;;15.84;86.70
21779;BME280;11050;52.222;20.916;2024-02-26T11:24:14;99471.84;;;15.74;86.79
21779;BME280;11050;52.222;20.916;2024-02-26T11:26:50;99461.38;;;15.71;86.65
21779;BME280;11050;52.222;20.916;2024-02-26T11:29:33;99471.72;;;16.06;83.71
21779;BME280;11050;52.222;20.916;2024-02-26T11:32:01;99469.41;;;16.35;81.30
21779;BME280;11050;52.222;20.916;2024-02-26T11:34:28;99478.44;;;16.76;79.72
21779;BME280;11050;52.222;20.916;2024-02-26T11:36:55;99472.63;;;17.08;77.45
21779;BME280;11050;52.222;20.916;2024-02-26T11:39:22;99468.47;;;17.50;74.79
21779;BME280;11050;52.222;20.916;2024-02-26T11:41:49;99464.13;;;18.06;71.34
21779;BME280;11050;52.222;20.916;2024-02-26T11:44:29;99478.06;;;18.31;67.38
21779;BME280;11050;52.222;20.916;2024-02-26T11:46:56;99467.78;;;18.32;66.75
21779;BME280;11050;52.222;20.916;2024-02-26T11:51:55;99471.75;;;18.90;64.77
21779;BME280;11050;52.222;20.916;2024-02-26T11:54:47;99472.91;;;19.70;60.87
21779;BME280;11050;52.222;20.916;2024-02-26T12:02:46;99474.03;;;21.63;52.27
21779;BME280;11050;52.222;20.916;2024-02-26T12:05:22;99474.72;;;22.17;48.91
21779;BME280;11050;52.222;20.916;2024-02-26T12:08:00;99466.25;;;22.65;46.62
21779;BME280;11050;52.222;20.916;2024-02-26T12:10:32;99461.28;;;22.86;45.80
21779;BME280;11050;52.222;20.916;2024-02-26T12:13:10;99464.53;;;23.16;44.45
21779;BME280;11050;52.222;20.916;2024-02-26T12:15:46;99470.09;;;23.56;42.26
21779;BME280;11050;52.222;20.916;2024-02-26T12:18:21;99461.88;;;23.94;41.79
21779;BME280;11050;52.222;20.916;2024-02-26T12:21:02;99465.31;;;24.18;40.62
21779;BME280;11050;52.222;20.916;2024-02-26T12:23:28;99462.28;;;24.42;40.07
21779;BME280;11050;52.222;20.916;2024-02-26T12:25:59;99459.66;;;24.69;38.92
21779;BME280;11050;52.222;20.916;2024-02-26T12:28:29;99467.41;;;24.91;38.65
21779;BME280;11050;52.222;20.916;2024-02-26T12:30:55;99459.84;;;25.14;37.59
21779;BME280;11050;52.222;20.916;2024-02-26T12:33:21;99461.44;;;25.53;36.56
21779;BME280;11050;52.222;20.916;2024-02-26T12:35:47;99459.03;;;25.74;36.14
21779;BME280;11050;52.222;20.916;2024-02-26T12:38:15;99471.69;;;26.06;35.05
21779;BME280;11050;52.222;20.916;2024-02-26T12:40:41;99462.78;;;26.27;35.17
21779;BME280;11050;52.222;20.916;2024-02-26T12:43:08;99461.78;;;26.42;34.33
21779;BME280;11050;52.222;20.916;2024-02-26T12:45:40;99459.59;;;26.55;33.92
21779;BME280;11050;52.222;20.916;2024-02-26T12:48:07;99447.44;;;26.77;33.92
21779;BME280;11050;52.222;20.916;2024-02-26T12:50:33;99460.00;;;27.12;32.72
21779;BME280;11050;52.222;20.916;2024-02-26T12:53:00;99463.78;;;27.27;32.11
21779;BME280;11050;52.222;20.916;2024-02-26T12:55:26;99461.16;;;27.41;31.62